createdAt,value
2022-09-05T00:03:06.792Z,0.65
2022-09-05T00:06:10.398Z,0.75
2022-09-05T00:09:18.896Z,0.80
2022-09-05T00:12:23.246Z,0.85
2022-09-05T00:15:36.286Z,0.70
2022-09-05T00:24:25.765Z,0.77
2022-09-05T00:24:33.004Z,0.68
2022-09-05T00:26:05.560Z,0.77
2022-09-05T00:29:20.364Z,0.70
2022-09-05T00:32:59.071Z,0.73
2022-09-05T00:36:20.097Z,0.70
2022-09-05T00:39:25.669Z,0.85
2022-09-05T00:42:27.471Z,0.80
2022-09-05T00:45:35.338Z,0.85
2022-09-05T00:48:46.368Z,0.88
2022-09-05T00:51:54.280Z,0.90
2022-09-05T00:55:10.749Z,0.75
2022-09-05T00:58:34.096Z,0.90
2022-09-05T01:01:41.936Z,0.77
2022-09-05T01:04:51.662Z,0.50
2022-09-05T01:08:13.075Z,0.73
2022-09-05T01:11:28.637Z,0.70
2022-09-05T01:14:43.903Z,0.88
2022-09-05T01:18:00.293Z,0.70
2022-09-05T01:21:21.120Z,0.82
2022-09-05T01:24:40.924Z,0.60
2022-09-05T01:29:14.555Z,0.65
2022-09-05T01:31:26.423Z,0.70
2022-09-05T01:34:37.238Z,0.70
2022-09-05T01:37:45.165Z,0.50
2022-09-05T01:41:18.814Z,0.80
2022-09-05T01:44:30.395Z,0.57
2022-09-05T01:47:46.645Z,0.70
2022-09-05T01:50:59.854Z,0.70
2022-09-05T01:54:25.082Z,0.45
2022-09-05T01:57:40.100Z,0.40
2022-09-05T02:00:55.761Z,0.65
2022-09-05T02:04:34.573Z,0.50
2022-09-05T02:08:09.586Z,0.47
2022-09-05T02:11:12.442Z,0.70
2022-09-05T02:14:33.822Z,0.50
2022-09-05T02:17:51.795Z,0.60
2022-09-05T02:20:56.926Z,0.50
2022-09-05T02:24:09.851Z,0.40
2022-09-05T02:27:47.561Z,0.50
2022-09-05T02:31:18.915Z,0.50
2022-09-05T02:34:22.846Z,0.60
2022-09-05T02:45:18.725Z,0.63
2022-09-05T02:45:24.051Z,0.60
2022-09-05T02:47:58.067Z,0.50
2022-09-05T02:57:27.444Z,0.50
2022-09-05T02:57:38.162Z,0.47
2022-09-05T02:58:20.547Z,0.55
2022-09-05T03:01:36.530Z,0.50
2022-09-05T03:04:47.421Z,0.55
2022-09-05T03:08:13.293Z,0.40
2022-09-05T03:12:27.146Z,0.80
2022-09-05T03:15:59.334Z,0.60
2022-09-05T03:19:47.012Z,0.60
2022-09-05T03:23:50.299Z,0.57
2022-09-05T03:27:20.394Z,0.90
2022-09-05T03:30:42.470Z,0.75
2022-09-05T03:34:00.113Z,0.82
2022-09-05T03:37:44.400Z,0.77
2022-09-05T03:41:06.825Z,0.90
2022-09-05T03:44:32.357Z,0.60
2022-09-05T03:47:53.991Z,0.98
2022-09-05T03:57:12.568Z,0.70
2022-09-05T03:57:13.502Z,0.60
2022-09-05T03:58:57.964Z,0.80
2022-09-05T04:04:28.839Z,0.60
2022-09-05T04:08:18.262Z,0.73
2022-09-05T04:09:03.672Z,0.80
2022-09-05T04:12:16.198Z,0.80
2022-09-05T04:15:31.037Z,0.88
2022-09-05T04:18:39.188Z,0.90
2022-09-05T04:21:47.036Z,0.90
2022-09-05T04:24:57.362Z,0.80
2022-09-05T04:28:19.504Z,0.80
2022-09-05T04:31:30.919Z,0.93
2022-09-05T04:34:45.063Z,0.68
2022-09-05T04:37:55.288Z,0.80
2022-09-05T04:41:00.510Z,0.85
2022-09-05T04:44:08.495Z,0.88
2022-09-05T04:47:16.285Z,0.90
2022-09-05T04:50:23.623Z,0.70
2022-09-05T04:53:47.905Z,0.95
2022-09-05T04:56:54.956Z,0.80
2022-09-05T05:05:23.673Z,0.90
2022-09-05T05:06:16.122Z,0.80
2022-09-05T05:07:06.117Z,0.70
2022-09-05T05:13:28.277Z,0.80
2022-09-05T05:17:57.804Z,0.73
2022-09-05T05:18:07.037Z,1.02
2022-09-05T05:20:44.050Z,1.00
2022-09-05T05:23:50.920Z,1.30
2022-09-05T05:27:00.198Z,1.15
2022-09-05T05:30:04.825Z,1.23
2022-09-05T05:33:18.991Z,1.15
2022-09-05T05:36:25.668Z,1.20
2022-09-05T05:39:29.202Z,1.00
2022-09-05T05:42:31.671Z,1.00
2022-09-05T05:45:33.972Z,1.20
2022-09-05T05:48:38.411Z,0.90
2022-09-05T05:52:02.647Z,1.08
2022-09-05T05:55:50.573Z,1.20
2022-09-05T05:59:08.559Z,1.30
2022-09-05T06:03:13.620Z,1.75
2022-09-05T06:06:36.782Z,1.20
2022-09-05T06:14:51.552Z,1.38
2022-09-05T06:14:57.621Z,1.48
2022-09-05T06:17:44.323Z,1.27
2022-09-05T06:22:05.954Z,1.25
2022-09-05T06:25:16.430Z,1.17
2022-09-05T06:28:30.533Z,1.52
2022-09-05T06:31:44.853Z,1.30
2022-09-05T06:35:07.776Z,1.30
2022-09-05T06:41:36.799Z,1.20
2022-09-05T06:44:55.785Z,1.25
2022-09-05T06:48:14.484Z,1.48
2022-09-05T06:51:49.765Z,1.13
2022-09-05T06:55:33.993Z,1.02
2022-09-05T06:59:15.254Z,1.35
2022-09-05T07:02:46.384Z,1.00
2022-09-05T07:05:55.735Z,1.10
2022-09-05T07:09:05.644Z,1.20
2022-09-05T07:12:18.193Z,1.05
2022-09-05T07:15:35.086Z,1.23
2022-09-05T07:18:45.414Z,1.17
2022-09-05T07:21:58.933Z,1.10
2022-09-05T07:25:06.492Z,1.00
2022-09-05T07:28:28.175Z,1.00
2022-09-05T07:31:37.511Z,0.80
2022-09-05T07:34:45.812Z,0.75
2022-09-05T07:37:56.698Z,1.40
2022-09-05T07:41:04.056Z,1.20
2022-09-05T07:44:10.901Z,1.25
2022-09-05T07:47:20.546Z,1.15
2022-09-05T07:52:09.404Z,1.60
2022-09-05T07:57:01.035Z,1.40
2022-09-05T07:57:25.519Z,1.00
2022-09-05T08:00:31.155Z,1.23
2022-09-05T08:03:33.919Z,1.27
2022-09-05T08:07:49.562Z,1.20
2022-09-05T08:10:09.221Z,0.85
2022-09-05T08:13:23.773Z,1.17
2022-09-05T08:22:52.200Z,1.13
2022-09-05T08:25:59.952Z,1.35
2022-09-05T08:29:11.150Z,1.20
2022-09-05T08:32:15.942Z,1.70
2022-09-05T08:35:26.603Z,1.40
2022-09-05T08:38:37.437Z,1.45
2022-09-05T08:42:03.487Z,1.70
2022-09-05T08:46:40.995Z,1.52
2022-09-05T08:49:11.253Z,1.40
2022-09-05T08:52:24.289Z,1.42
2022-09-05T08:55:39.461Z,1.38
2022-09-05T08:59:28.335Z,1.33
2022-09-05T09:02:50.743Z,1.10
2022-09-05T09:06:18.056Z,1.10
2022-09-05T09:09:34.265Z,1.20
2022-09-05T09:13:03.768Z,1.08
2022-09-05T09:16:10.947Z,1.20
2022-09-05T09:19:29.440Z,1.15
2022-09-05T09:22:39.950Z,1.27
2022-09-05T09:25:49.167Z,1.10
2022-09-05T09:28:57.668Z,1.10
2022-09-05T09:32:04.751Z,1.02
2022-09-05T09:35:14.813Z,1.10
2022-09-05T09:38:26.404Z,0.90
2022-09-05T09:41:45.264Z,1.00
2022-09-05T09:45:22.750Z,1.10
2022-09-05T09:48:53.112Z,0.90
2022-09-05T09:52:20.991Z,1.10
2022-09-05T09:55:59.911Z,0.80
2022-09-05T09:59:22.492Z,0.63
2022-09-05T10:05:47.610Z,0.65
2022-09-05T10:10:51.623Z,0.70
2022-09-05T10:10:58.569Z,0.73
2022-09-05T10:14:49.672Z,0.50
2022-09-05T10:18:25.514Z,0.60
2022-09-05T10:25:19.635Z,0.90
2022-09-05T10:28:31.693Z,0.60
2022-09-05T10:34:23.413Z,0.63
2022-09-05T10:35:25.962Z,0.60
2022-09-05T10:38:36.095Z,0.80
2022-09-05T10:41:51.657Z,0.50
2022-09-05T10:44:55.309Z,0.60
2022-09-05T10:48:13.321Z,0.60
2022-09-05T10:51:27.809Z,0.73
2022-09-05T10:54:38.045Z,0.80
2022-09-05T10:57:53.465Z,0.60
2022-09-05T11:02:19.413Z,0.70
2022-09-05T11:04:49.730Z,0.70
2022-09-05T11:08:02.850Z,0.60
2022-09-05T11:11:26.082Z,0.80
2022-09-05T11:14:49.305Z,0.60
2022-09-05T11:17:57.927Z,0.65
2022-09-05T11:21:08.379Z,0.70
2022-09-05T11:24:27.419Z,0.73
2022-09-05T11:27:34.464Z,0.73
2022-09-05T11:30:40.657Z,0.60
2022-09-05T11:39:52.354Z,0.90
2022-09-05T11:40:06.813Z,0.70
2022-09-05T11:41:38.740Z,0.60
2022-09-05T11:44:53.752Z,0.60
2022-09-05T11:48:22.717Z,0.70
2022-09-05T11:51:48.495Z,0.60
2022-09-05T11:55:24.789Z,0.60
2022-09-05T11:58:55.506Z,0.68
2022-09-05T12:02:23.267Z,0.77
2022-09-05T12:08:59.910Z,0.70
2022-09-05T12:12:39.392Z,0.60
2022-09-05T12:16:07.309Z,0.60
2022-09-05T12:19:23.039Z,0.68
2022-09-05T12:22:29.161Z,0.47
2022-09-05T12:27:39.352Z,0.80
2022-09-05T12:36:01.334Z,0.60
2022-09-05T12:40:40.570Z,0.60
2022-09-05T12:40:55.409Z,0.68
2022-09-05T12:41:41.810Z,0.63
2022-09-05T12:44:38.344Z,0.70
2022-09-05T12:46:35.642Z,0.82
2022-09-05T12:49:52.187Z,0.65
2022-09-05T12:53:01.893Z,0.45
2022-09-05T12:58:09.105Z,0.60
2022-09-05T13:03:03.545Z,0.75
2022-09-05T13:03:26.812Z,0.63
2022-09-05T13:06:25.993Z,0.55
2022-09-05T13:10:48.903Z,0.40
2022-09-05T13:14:55.028Z,0.50
2022-09-05T13:16:25.837Z,0.50
2022-09-05T13:19:34.321Z,0.40
2022-09-05T13:22:40.118Z,0.35
2022-09-05T13:25:58.336Z,0.50
2022-09-05T13:29:10.616Z,0.47
2022-09-05T13:38:10.811Z,0.40
2022-09-05T13:38:10.926Z,0.45
2022-09-05T13:39:32.855Z,0.52
2022-09-05T13:42:39.769Z,0.50
2022-09-05T13:46:11.453Z,0.40
2022-09-05T13:49:26.657Z,0.40
2022-09-05T13:52:35.645Z,0.43
2022-09-05T13:55:44.205Z,0.50
2022-09-05T13:58:57.181Z,0.32
2022-09-05T14:02:27.935Z,0.32
2022-09-05T14:05:37.460Z,0.40
2022-09-05T14:12:38.715Z,0.50
2022-09-05T14:15:52.237Z,0.47
2022-09-05T14:19:14.381Z,0.47
2022-09-05T14:22:35.519Z,0.52
2022-09-05T14:25:39.987Z,0.50
2022-09-05T14:28:50.184Z,0.50
2022-09-05T14:37:37.484Z,0.40
2022-09-05T14:37:49.608Z,0.60
2022-09-05T14:39:51.948Z,0.40
2022-09-05T14:43:17.511Z,0.47
2022-09-05T14:46:51.027Z,0.57
2022-09-05T14:50:06.044Z,0.50
2022-09-05T14:58:03.359Z,1.27
2022-09-05T15:02:44.573Z,0.95
2022-09-05T15:07:16.700Z,1.65
2022-09-05T15:12:14.553Z,2.60
2022-09-05T15:14:01.400Z,2.03
2022-09-05T15:17:05.719Z,1.50
2022-09-05T15:20:09.700Z,1.00
2022-09-05T15:23:28.597Z,0.65
2022-09-05T15:26:31.615Z,0.70
2022-09-05T15:29:35.228Z,0.30
2022-09-05T15:32:38.874Z,0.50
2022-09-05T15:35:44.066Z,0.50
2022-09-05T15:38:55.957Z,0.40
2022-09-05T15:42:12.828Z,0.55
2022-09-05T15:45:20.645Z,0.57
2022-09-05T15:48:26.157Z,1.35
2022-09-05T15:51:42.464Z,0.50
2022-09-05T15:54:49.626Z,0.73
2022-09-05T15:57:53.911Z,1.60
2022-09-05T16:00:55.733Z,0.90
2022-09-05T16:10:27.037Z,1.00
2022-09-05T16:10:42.219Z,3.55
2022-09-05T16:11:20.308Z,2.30
2022-09-05T16:23:13.191Z,2.78
2022-09-05T16:23:34.728Z,0.60
2022-09-05T16:24:24.823Z,0.75
2022-09-05T16:28:00.170Z,0.40
2022-09-05T16:31:05.037Z,0.50
2022-09-05T16:34:19.914Z,0.50
2022-09-05T16:37:29.143Z,0.50
2022-09-05T16:40:38.299Z,1.00
2022-09-05T16:43:44.477Z,1.25
2022-09-05T16:47:02.486Z,0.52
2022-09-05T16:50:16.605Z,0.88
2022-09-05T16:53:30.608Z,1.80
2022-09-05T16:56:38.994Z,1.70
2022-09-05T16:59:45.625Z,0.68
2022-09-05T17:02:53.799Z,0.82
2022-09-05T17:06:05.594Z,0.52
2022-09-05T17:09:19.599Z,0.30
2022-09-05T17:12:26.663Z,2.08
2022-09-05T17:15:35.300Z,1.20
2022-09-05T17:18:38.993Z,0.60
2022-09-05T17:24:46.472Z,1.52
2022-09-05T17:29:25.248Z,3.80
2022-09-05T17:29:29.472Z,1.75
2022-09-05T17:32:19.050Z,2.05
2022-09-05T17:35:42.279Z,1.20
2022-09-05T17:39:05.881Z,0.90
2022-09-05T17:42:28.745Z,0.60
2022-09-05T17:45:45.263Z,0.80
2022-09-05T17:49:18.118Z,0.50
2022-09-05T17:52:23.230Z,0.35
2022-09-05T17:59:05.879Z,0.45
2022-09-05T18:02:31.940Z,0.40
2022-09-05T18:06:00.952Z,0.40
2022-09-05T18:09:08.949Z,0.52
2022-09-05T18:12:31.564Z,0.43
2022-09-05T18:16:10.451Z,0.50
2022-09-05T18:20:00.143Z,0.30
2022-09-05T18:23:43.706Z,0.30
2022-09-05T18:30:24.925Z,0.30
2022-09-05T18:33:55.997Z,0.40
2022-09-05T18:36:51.385Z,0.40
2022-09-05T18:40:03.898Z,0.40
2022-09-05T18:43:14.121Z,0.30
2022-09-05T18:46:21.040Z,0.50
2022-09-05T18:50:24.604Z,0.43
2022-09-05T18:53:10.229Z,0.40
2022-09-05T18:56:30.992Z,0.30
2022-09-05T18:59:36.247Z,0.40
2022-09-05T19:02:51.502Z,0.60
2022-09-05T19:06:36.602Z,0.52
2022-09-05T19:09:31.563Z,0.50
2022-09-05T19:12:40.867Z,0.55
2022-09-05T19:16:02.283Z,0.52
2022-09-05T19:19:27.680Z,0.50
2022-09-05T19:23:02.634Z,0.50
2022-09-05T19:25:56.176Z,0.80
2022-09-05T19:36:51.850Z,0.45
2022-09-05T19:37:03.611Z,0.50
2022-09-05T19:37:05.140Z,0.50
2022-09-05T19:41:34.667Z,0.40
2022-09-05T19:47:29.585Z,0.45
2022-09-05T19:47:45.141Z,0.60
2022-09-05T19:52:35.655Z,0.57
2022-09-05T19:55:41.817Z,0.47
2022-09-05T19:58:45.748Z,0.70
2022-09-05T20:01:48.172Z,0.60
2022-09-05T20:04:53.177Z,0.38
2022-09-05T20:07:57.378Z,0.45
2022-09-05T20:11:03.212Z,0.60
2022-09-05T20:14:18.841Z,0.50
2022-09-05T20:17:24.120Z,0.40
2022-09-05T20:20:28.231Z,0.50
2022-09-05T20:23:31.216Z,0.45
2022-09-05T20:26:34.395Z,0.50
2022-09-05T20:29:54.925Z,0.90
2022-09-05T20:33:05.170Z,0.60
2022-09-05T20:40:32.393Z,0.60
2022-09-05T20:43:28.947Z,0.45
2022-09-05T20:43:36.452Z,0.50
2022-09-05T20:49:35.186Z,0.50
2022-09-05T20:54:15.841Z,0.50
2022-09-05T20:54:22.769Z,0.45
2022-09-05T20:57:13.514Z,0.70
2022-09-05T21:00:19.369Z,0.70
2022-09-05T21:03:27.710Z,0.50
2022-09-05T21:06:33.428Z,0.70
2022-09-05T21:09:50.825Z,0.50
2022-09-05T21:12:55.590Z,0.60
2022-09-05T21:15:58.770Z,0.55
2022-09-05T21:19:02.085Z,0.50
2022-09-05T21:22:06.719Z,0.68
2022-09-05T21:25:22.556Z,0.70
2022-09-05T21:28:36.932Z,0.50
2022-09-05T21:31:44.114Z,0.50
2022-09-05T21:34:52.017Z,0.60
2022-09-05T21:37:55.694Z,0.75
2022-09-05T21:41:01.205Z,0.52
2022-09-05T21:47:37.649Z,0.82
2022-09-05T21:47:48.937Z,0.75
2022-09-05T21:50:51.372Z,0.40
2022-09-05T21:59:18.157Z,0.47
2022-09-05T21:59:28.484Z,0.50
2022-09-05T22:00:42.375Z,0.57
2022-09-05T22:03:44.550Z,0.60
2022-09-05T22:06:48.638Z,0.63
2022-09-05T22:12:52.385Z,0.88
2022-09-05T22:15:57.029Z,0.40
2022-09-05T22:19:00.767Z,0.43
2022-09-05T22:22:15.504Z,0.40
2022-09-05T22:25:27.345Z,0.65
2022-09-05T22:28:33.498Z,0.40
2022-09-05T22:31:36.509Z,0.30
2022-09-05T22:34:38.453Z,0.40
2022-09-05T22:37:44.338Z,0.55
2022-09-05T22:40:46.144Z,0.40
2022-09-05T22:43:50.128Z,0.45
2022-09-05T22:46:52.303Z,0.68
2022-09-05T22:49:53.980Z,0.80
2022-09-05T22:52:57.064Z,0.68
2022-09-05T22:56:02.094Z,0.57
2022-09-05T22:59:05.124Z,0.52
2022-09-05T23:02:06.959Z,0.50
2022-09-05T23:05:09.518Z,0.40
2022-09-05T23:08:13.164Z,0.55
2022-09-05T23:11:16.777Z,0.50
2022-09-05T23:14:18.582Z,0.30
2022-09-05T23:17:20.313Z,0.50
2022-09-05T23:20:22.759Z,0.47
2022-09-05T23:23:25.871Z,0.52
2022-09-05T23:26:27.655Z,0.55
2022-09-05T23:29:29.414Z,0.40
2022-09-05T23:32:31.314Z,0.50
2022-09-05T23:35:33.156Z,0.55
2022-09-05T23:38:36.584Z,0.60
2022-09-05T23:41:38.257Z,0.68
2022-09-05T23:44:39.924Z,0.70
2022-09-05T23:47:41.652Z,0.70
2022-09-05T23:50:43.342Z,0.50
2022-09-05T23:53:46.730Z,0.60
2022-09-05T23:56:48.569Z,0.40
2022-09-05T23:59:52.379Z,0.40
